createdAt,value
2017-06-22T00:00:56.010Z,29.87
2017-06-22T00:01:56.365Z,29.94
2017-06-22T00:02:56.074Z,29.97
2017-06-22T00:03:56.103Z,29.97
2017-06-22T00:04:56.431Z,29.89
2017-06-22T00:05:56.172Z,29.9
2017-06-22T00:06:56.517Z,29.9
2017-06-22T00:07:56.532Z,29.9
2017-06-22T00:08:56.721Z,29.92
2017-06-22T00:09:56.858Z,29.9
2017-06-22T00:10:56.644Z,29.92
2017-06-22T00:11:56.357Z,29.92
2017-06-22T00:12:56.389Z,29.89
2017-06-22T00:13:56.731Z,29.9
2017-06-22T00:14:57.063Z,29.92
2017-06-22T00:15:56.792Z,29.92
2017-06-22T00:16:56.821Z,29.89
2017-06-22T00:17:56.858Z,29.89
2017-06-22T00:18:56.567Z,29.89
2017-06-22T00:19:56.844Z,29.9
2017-06-22T00:20:56.937Z,29.9
2017-06-22T00:21:56.965Z,29.87
2017-06-22T00:22:56.691Z,29.86
2017-06-22T00:23:56.718Z,29.89
2017-06-22T00:24:57.364Z,29.85
2017-06-22T00:25:56.788Z,29.82
2017-06-22T00:26:56.505Z,29.8
2017-06-22T00:27:57.153Z,29.76
2017-06-22T00:28:57.186Z,29.8
2017-06-22T00:29:56.593Z,29.83
2017-06-22T00:30:56.941Z,29.83
2017-06-22T00:31:56.977Z,29.83
2017-06-22T00:32:57.006Z,29.89
2017-06-22T00:33:57.353Z,29.82
2017-06-22T00:34:57.057Z,29.86
2017-06-22T00:35:57.413Z,29.79
2017-06-22T00:36:56.820Z,29.8
2017-06-22T00:37:57.467Z,29.76
2017-06-22T00:38:57.505Z,29.78
2017-06-22T00:39:57.532Z,29.9
2017-06-22T00:40:57.253Z,29.8
2017-06-22T00:41:57.598Z,29.8
2017-06-22T00:42:57.308Z,29.79
2017-06-22T00:43:57.642Z,29.76
2017-06-22T00:44:57.693Z,29.78
2017-06-22T00:45:57.718Z,29.74
2017-06-22T00:46:57.751Z,29.79
2017-06-22T00:47:57.771Z,29.78
2017-06-22T00:48:57.812Z,29.78
2017-06-22T00:49:57.840Z,29.8
2017-06-22T00:50:57.562Z,29.83
2017-06-22T00:51:57.915Z,29.76
2017-06-22T00:52:57.931Z,29.79
2017-06-22T00:53:57.657Z,29.74
2017-06-22T00:54:57.990Z,29.78
2017-06-22T00:55:57.717Z,29.78
2017-06-22T00:56:58.090Z,29.78
2017-06-22T00:57:57.771Z,29.78
2017-06-22T00:58:58.120Z,29.74
2017-06-22T00:59:57.837Z,29.73
2017-06-22T01:00:58.182Z,29.71
2017-06-22T01:01:58.218Z,29.71
2017-06-22T01:02:58.245Z,29.82
2017-06-22T01:03:58.268Z,29.74
2017-06-22T01:04:58.306Z,29.68
2017-06-22T01:05:58.340Z,29.79
2017-06-22T01:06:58.054Z,29.73
2017-06-22T01:07:58.395Z,29.71
2017-06-22T01:08:58.429Z,29.71
2017-06-22T01:09:58.137Z,29.71
2017-06-22T01:10:58.178Z,29.7
2017-06-22T01:11:57.899Z,29.76
2017-06-22T01:12:58.552Z,29.78
2017-06-22T01:13:58.580Z,29.64
2017-06-22T01:14:58.297Z,29.71
2017-06-22T01:15:58.900Z,29.71
2017-06-22T01:16:58.676Z,29.65
2017-06-22T01:17:58.699Z,29.65
2017-06-22T01:18:58.741Z,29.68
2017-06-22T01:19:58.778Z,29.64
2017-06-22T01:20:58.780Z,29.67
2017-06-22T01:21:58.207Z,29.74
2017-06-22T01:22:58.237Z,29.73
2017-06-22T01:23:58.890Z,29.64
2017-06-22T01:24:58.919Z,29.6
2017-06-22T01:25:59.247Z,29.71
2017-06-22T01:26:58.980Z,29.65
2017-06-22T01:27:58.721Z,29.68
2017-06-22T01:28:59.045Z,29.74
2017-06-22T01:29:58.757Z,29.61
2017-06-22T01:30:59.091Z,29.67
2017-06-22T01:31:58.831Z,29.67
2017-06-22T01:32:58.854Z,29.65
2017-06-22T01:33:59.197Z,29.6
2017-06-22T01:34:58.917Z,29.64
2017-06-22T01:35:59.560Z,29.63
2017-06-22T01:36:58.987Z,29.65
2017-06-22T01:37:59.325Z,29.65
2017-06-22T01:38:59.042Z,29.67
2017-06-22T01:39:59.063Z,29.57
2017-06-22T01:40:59.709Z,29.63
2017-06-22T01:41:59.454Z,29.57
2017-06-22T01:42:59.161Z,29.65
2017-06-22T01:43:59.502Z,29.57
2017-06-22T01:44:59.539Z,29.64
2017-06-22T01:45:59.818Z,29.65
2017-06-22T01:46:59.601Z,29.65
2017-06-22T01:47:59.630Z,29.64
2017-06-22T01:48:59.351Z,29.58
2017-06-22T01:49:59.072Z,29.58
2017-06-22T01:50:59.668Z,29.64
2017-06-22T01:51:59.753Z,29.67
2017-06-22T01:52:59.461Z,29.6
2017-06-22T01:53:59.807Z,29.6
2017-06-22T01:54:59.844Z,29.6
2017-06-22T01:56:00.177Z,29.65
2017-06-22T01:56:59.904Z,29.71
2017-06-22T01:57:59.938Z,29.55
2017-06-22T01:58:59.650Z,29.67
2017-06-22T02:00:00.001Z,29.57
2017-06-22T02:00:59.713Z,29.63
2017-06-22T02:02:00.055Z,29.6
2017-06-22T02:03:00.103Z,29.61
2017-06-22T02:04:00.129Z,29.64
2017-06-22T02:04:59.841Z,29.61
2017-06-22T02:06:00.438Z,29.61
2017-06-22T02:07:00.214Z,29.65
2017-06-22T02:08:00.260Z,29.57
2017-06-22T02:09:00.275Z,29.67
2017-06-22T02:10:00.309Z,29.61
2017-06-22T02:11:00.322Z,29.58
2017-06-22T02:12:00.052Z,29.55
2017-06-22T02:13:00.397Z,29.6
2017-06-22T02:14:00.123Z,29.6
2017-06-22T02:15:00.448Z,29.64
2017-06-22T02:16:00.797Z,29.6
2017-06-22T02:17:00.214Z,29.61
2017-06-22T02:18:00.243Z,29.57
2017-06-22T02:19:00.572Z,29.6
2017-06-22T02:20:00.305Z,29.61
2017-06-22T02:21:00.329Z,29.55
2017-06-22T02:22:00.665Z,29.57
2017-06-22T02:23:00.706Z,29.58
2017-06-22T02:24:00.735Z,29.63
2017-06-22T02:25:00.452Z,29.6
2017-06-22T02:26:00.797Z,29.61
2017-06-22T02:27:00.824Z,29.53
2017-06-22T02:28:00.855Z,29.64
2017-06-22T02:29:00.887Z,29.64
2017-06-22T02:30:00.926Z,29.64
2017-06-22T02:31:00.645Z,29.58
2017-06-22T02:32:00.975Z,29.55
2017-06-22T02:33:00.708Z,29.61
2017-06-22T02:34:00.740Z,29.53
2017-06-22T02:35:01.082Z,29.58
2017-06-22T02:36:01.106Z,29.49
2017-06-22T02:37:00.822Z,29.48
2017-06-22T02:38:01.151Z,29.58
2017-06-22T02:39:01.217Z,29.6
2017-06-22T02:40:01.232Z,29.57
2017-06-22T02:41:00.931Z,29.6
2017-06-22T02:42:01.283Z,29.49
2017-06-22T02:43:01.009Z,29.61
2017-06-22T02:44:01.353Z,29.53
2017-06-22T02:45:01.063Z,29.49
2017-06-22T02:46:01.096Z,29.53
2017-06-22T02:47:01.124Z,29.58
2017-06-22T02:48:01.169Z,29.51
2017-06-22T02:49:01.193Z,29.6
2017-06-22T02:50:01.526Z,29.52
2017-06-22T02:51:01.248Z,29.55
2017-06-22T02:52:01.591Z,29.51
2017-06-22T02:53:01.626Z,29.6
2017-06-22T02:54:01.341Z,29.53
2017-06-22T02:55:01.374Z,29.58
2017-06-22T02:56:01.723Z,29.58
2017-06-22T02:57:01.751Z,29.6
2017-06-22T02:58:01.775Z,29.58
2017-06-22T02:59:01.182Z,29.43
2017-06-22T03:00:01.838Z,29.49
2017-06-22T03:01:01.555Z,29.51
2017-06-22T03:02:01.907Z,29.52
2017-06-22T03:03:01.304Z,29.52
2017-06-22T03:04:01.969Z,29.52
2017-06-22T03:05:01.682Z,29.52
2017-06-22T03:06:02.047Z,29.49
2017-06-22T03:07:01.752Z,29.51
2017-06-22T03:08:01.773Z,29.49
2017-06-22T03:09:01.802Z,29.57
2017-06-22T03:10:02.155Z,29.51
2017-06-22T03:11:01.863Z,29.49
2017-06-22T03:12:02.208Z,29.51
2017-06-22T03:13:02.241Z,29.51
2017-06-22T03:14:01.644Z,29.49
2017-06-22T03:15:01.678Z,29.52
2017-06-22T03:16:02.328Z,29.51
2017-06-22T03:17:02.365Z,29.49
2017-06-22T03:18:02.388Z,29.49
2017-06-22T03:19:02.427Z,29.49
2017-06-22T03:20:02.147Z,29.46
2017-06-22T03:21:02.480Z,29.51
2017-06-22T03:22:02.528Z,29.57
2017-06-22T03:23:01.922Z,29.46
2017-06-22T03:24:02.285Z,29.52
2017-06-22T03:25:02.608Z,29.49
2017-06-22T03:26:02.644Z,29.42
2017-06-22T03:27:02.968Z,29.51
2017-06-22T03:28:02.700Z,29.46
2017-06-22T03:29:02.722Z,29.51
2017-06-22T03:30:02.762Z,29.51
2017-06-22T03:31:02.796Z,29.46
2017-06-22T03:32:03.129Z,29.42
2017-06-22T03:33:02.849Z,29.46
2017-06-22T03:34:02.567Z,29.55
2017-06-22T03:35:02.910Z,29.55
2017-06-22T03:36:02.632Z,29.57
2017-06-22T03:37:03.268Z,29.49
2017-06-22T03:38:02.685Z,29.52
2017-06-22T03:39:02.723Z,29.51
2017-06-22T03:40:03.075Z,29.43
2017-06-22T03:41:02.789Z,29.43
2017-06-22T03:42:03.063Z,29.46
2017-06-22T03:43:03.161Z,29.55
2017-06-22T03:44:03.190Z,29.51
2017-06-22T03:45:03.220Z,29.49
2017-06-22T03:46:02.936Z,29.42
2017-06-22T03:47:03.588Z,29.45
2017-06-22T03:48:03.318Z,29.48
2017-06-22T03:49:03.346Z,29.46
2017-06-22T03:50:03.053Z,29.45
2017-06-22T03:51:03.392Z,29.46
2017-06-22T03:52:03.369Z,29.51
2017-06-22T03:53:03.485Z,29.41
2017-06-22T03:54:03.187Z,29.51
2017-06-22T03:55:03.527Z,29.48
2017-06-22T03:56:03.560Z,29.49
2017-06-22T03:57:03.841Z,29.45
2017-06-22T03:58:03.619Z,29.42
2017-06-22T03:59:03.645Z,29.45
2017-06-22T04:00:03.361Z,29.39
2017-06-22T04:01:03.705Z,29.42
2017-06-22T04:02:03.733Z,29.48
2017-06-22T04:03:03.758Z,29.43
2017-06-22T04:04:03.799Z,29.49
2017-06-22T04:05:03.822Z,29.48
2017-06-22T04:06:03.864Z,29.51
2017-06-22T04:07:04.142Z,29.52
2017-06-22T04:08:03.604Z,29.55
2017-06-22T04:09:03.962Z,29.43
2017-06-22T04:10:03.997Z,29.49
2017-06-22T04:11:03.696Z,29.51
2017-06-22T04:12:04.338Z,29.45
2017-06-22T04:13:03.767Z,29.46
2017-06-22T04:14:03.800Z,29.43
2017-06-22T04:15:04.141Z,29.43
2017-06-22T04:16:03.859Z,29.39
2017-06-22T04:17:04.139Z,29.45
2017-06-22T04:18:03.604Z,29.46
2017-06-22T04:19:04.256Z,29.43
2017-06-22T04:20:04.293Z,29.48
2017-06-22T04:21:03.997Z,29.49
2017-06-22T04:22:04.603Z,29.51
2017-06-22T04:23:04.080Z,29.42
2017-06-22T04:24:04.413Z,29.46
2017-06-22T04:25:04.437Z,29.45
2017-06-22T04:26:04.190Z,29.49
2017-06-22T04:27:04.442Z,29.46
2017-06-22T04:28:04.215Z,29.37
2017-06-22T04:29:04.568Z,29.46
2017-06-22T04:30:04.597Z,29.48
2017-06-22T04:31:04.319Z,29.46
2017-06-22T04:32:04.339Z,29.49
2017-06-22T04:33:04.375Z,29.43
2017-06-22T04:34:04.411Z,29.43
2017-06-22T04:35:04.745Z,29.39
2017-06-22T04:36:04.794Z,29.41
2017-06-22T04:37:05.135Z,29.42
2017-06-22T04:38:04.580Z,29.39
2017-06-22T04:39:04.874Z,29.37
2017-06-22T04:40:04.911Z,29.48
2017-06-22T04:41:04.939Z,29.42
2017-06-22T04:42:05.206Z,29.48
2017-06-22T04:43:04.998Z,29.45
2017-06-22T04:44:05.025Z,29.41
2017-06-22T04:45:04.743Z,29.43
2017-06-22T04:46:05.087Z,29.46
2017-06-22T04:47:05.359Z,29.42
2017-06-22T04:48:04.831Z,29.41
2017-06-22T04:49:04.536Z,29.41
2017-06-22T04:50:05.217Z,29.48
2017-06-22T04:51:05.239Z,29.45
2017-06-22T04:52:05.258Z,29.46
2017-06-22T04:53:05.300Z,29.39
2017-06-22T04:54:05.331Z,29.43
2017-06-22T04:55:05.354Z,29.45
2017-06-22T04:56:05.382Z,29.49
2017-06-22T04:57:05.675Z,29.42
2017-06-22T04:58:05.448Z,29.39
2017-06-22T04:59:05.485Z,29.46
2017-06-22T05:00:05.516Z,29.37
2017-06-22T05:01:05.222Z,29.42
2017-06-22T05:02:05.251Z,29.46
2017-06-22T05:03:05.284Z,29.45
2017-06-22T05:04:05.641Z,29.41
2017-06-22T05:05:05.350Z,29.42
2017-06-22T05:06:05.703Z,29.41
2017-06-22T05:07:05.724Z,29.39
2017-06-22T05:08:05.445Z,29.41
2017-06-22T05:09:05.482Z,29.48
2017-06-22T05:10:05.806Z,29.42
2017-06-22T05:11:05.847Z,29.41
2017-06-22T05:12:05.877Z,29.48
2017-06-22T05:13:05.598Z,29.42
2017-06-22T05:14:05.938Z,29.48
2017-06-22T05:15:05.655Z,29.42
2017-06-22T05:16:05.999Z,29.42
2017-06-22T05:17:06.037Z,29.51
2017-06-22T05:18:06.061Z,29.42
2017-06-22T05:19:06.091Z,29.46
2017-06-22T05:20:06.128Z,29.49
2017-06-22T05:21:06.157Z,29.51
2017-06-22T05:22:06.176Z,29.43
2017-06-22T05:23:06.218Z,29.45
2017-06-22T05:24:06.251Z,29.49
2017-06-22T05:25:06.275Z,29.48
2017-06-22T05:26:06.312Z,29.52
2017-06-22T05:27:06.342Z,29.49
2017-06-22T05:28:06.053Z,29.51
2017-06-22T05:29:06.398Z,29.49
2017-06-22T05:30:06.114Z,29.51
2017-06-22T05:31:06.462Z,29.48
2017-06-22T05:32:06.176Z,29.46
2017-06-22T05:33:06.514Z,29.51
2017-06-22T05:34:06.561Z,29.51
2017-06-22T05:35:06.574Z,29.51
2017-06-22T05:36:06.608Z,29.48
2017-06-22T05:37:06.641Z,29.48
2017-06-22T05:38:06.669Z,29.6
2017-06-22T05:39:06.706Z,29.57
2017-06-22T05:40:06.732Z,29.57
2017-06-22T05:41:06.764Z,29.57
2017-06-22T05:42:06.173Z,29.53
2017-06-22T05:43:07.098Z,29.61
2017-06-22T05:44:06.538Z,29.6
2017-06-22T05:45:06.257Z,29.61
2017-06-22T05:46:06.957Z,29.55
2017-06-22T05:47:06.949Z,29.55
2017-06-22T05:48:06.919Z,29.52
2017-06-22T05:49:07.027Z,29.52
2017-06-22T05:50:07.037Z,29.53
2017-06-22T05:51:07.092Z,29.58
2017-06-22T05:52:07.105Z,29.57
2017-06-22T05:53:07.383Z,29.58
2017-06-22T05:54:07.159Z,29.63
2017-06-22T05:55:06.885Z,29.6
2017-06-22T05:56:07.251Z,29.6
2017-06-22T05:57:07.257Z,29.57
2017-06-22T05:58:07.543Z,29.57
2017-06-22T05:59:06.691Z,29.55
2017-06-22T06:00:07.340Z,29.55
2017-06-22T06:01:07.390Z,29.58
2017-06-22T06:02:07.410Z,29.57
2017-06-22T06:03:07.390Z,29.61
2017-06-22T06:04:07.472Z,29.63
2017-06-22T06:05:07.509Z,29.63
2017-06-22T06:06:07.222Z,29.55
2017-06-22T06:07:07.251Z,29.61
2017-06-22T06:08:07.887Z,29.6
2017-06-22T06:09:07.612Z,29.65
2017-06-22T06:10:07.648Z,29.61
2017-06-22T06:11:07.361Z,29.6
2017-06-22T06:12:07.407Z,29.61
2017-06-22T06:13:07.991Z,29.67
2017-06-22T06:14:07.460Z,29.58
2017-06-22T06:15:07.492Z,29.57
2017-06-22T06:16:07.826Z,29.58
2017-06-22T06:17:07.563Z,29.6
2017-06-22T06:18:08.191Z,29.65
2017-06-22T06:19:07.942Z,29.63
2017-06-22T06:20:07.959Z,29.6
2017-06-22T06:21:07.992Z,29.61
2017-06-22T06:22:08.006Z,29.63
2017-06-22T06:23:08.352Z,29.67
2017-06-22T06:24:08.084Z,29.63
2017-06-22T06:25:08.101Z,29.63
2017-06-22T06:26:08.149Z,29.63
2017-06-22T06:27:08.173Z,29.61
2017-06-22T06:28:07.584Z,29.64
2017-06-22T06:29:07.920Z,29.64
2017-06-22T06:30:07.962Z,29.63
2017-06-22T06:31:08.294Z,29.65
2017-06-22T06:32:08.327Z,29.65
2017-06-22T06:33:08.345Z,29.63
2017-06-22T06:34:08.076Z,29.68
2017-06-22T06:35:08.143Z,29.68
2017-06-22T06:36:08.443Z,29.63
2017-06-22T06:37:08.488Z,29.67
2017-06-22T06:38:08.516Z,29.7
2017-06-22T06:39:08.548Z,29.65
2017-06-22T06:40:08.585Z,29.73
2017-06-22T06:41:08.602Z,29.67
2017-06-22T06:42:08.625Z,29.73
2017-06-22T06:43:08.673Z,29.71
2017-06-22T06:44:08.693Z,29.65
2017-06-22T06:45:08.732Z,29.68
2017-06-22T06:46:08.753Z,29.71
2017-06-22T06:47:08.464Z,29.73
2017-06-22T06:48:08.820Z,29.73
2017-06-22T06:49:08.533Z,29.82
2017-06-22T06:50:08.574Z,29.78
2017-06-22T06:51:08.275Z,29.7
2017-06-22T06:52:08.628Z,29.79
2017-06-22T06:53:08.660Z,29.78
2017-06-22T06:54:09.005Z,29.78
2017-06-22T06:55:08.722Z,29.79
2017-06-22T06:56:09.068Z,29.89
2017-06-22T06:57:08.789Z,29.76
2017-06-22T06:58:09.128Z,29.8
2017-06-22T06:59:08.839Z,29.8
2017-06-22T07:00:08.878Z,29.86
2017-06-22T07:01:09.220Z,29.92
2017-06-22T07:02:09.245Z,29.87
2017-06-22T07:03:09.284Z,29.86
2017-06-22T07:04:09.306Z,29.86
2017-06-22T07:05:09.335Z,29.9
2017-06-22T07:06:09.376Z,29.87
2017-06-22T07:07:09.085Z,29.95
2017-06-22T07:08:09.433Z,29.94
2017-06-22T07:09:09.466Z,29.94
2017-06-22T07:10:09.490Z,29.95
2017-06-22T07:11:09.535Z,29.9
2017-06-22T07:12:09.236Z,29.89
2017-06-22T07:13:09.274Z,29.95
2017-06-22T07:14:09.605Z,29.89
2017-06-22T07:15:09.339Z,29.97
2017-06-22T07:16:09.674Z,29.94
2017-06-22T07:17:09.713Z,29.92
2017-06-22T07:18:09.735Z,29.98
2017-06-22T07:19:09.777Z,30.04
2017-06-22T07:20:09.806Z,29.95
2017-06-22T07:21:09.831Z,29.98
2017-06-22T07:22:09.553Z,30.02
2017-06-22T07:23:09.586Z,30.02
2017-06-22T07:24:09.932Z,29.97
2017-06-22T07:25:09.736Z,29.97
2017-06-22T07:26:09.988Z,29.98
2017-06-22T07:27:09.718Z,29.95
2017-06-22T07:28:10.054Z,29.98
2017-06-22T07:29:09.762Z,30.01
2017-06-22T07:30:10.111Z,30.08
2017-06-22T07:31:10.145Z,30.05
2017-06-22T07:32:09.858Z,30.15
2017-06-22T07:33:10.202Z,30.01
2017-06-22T07:34:09.923Z,30.07
2017-06-22T07:35:10.284Z,30.13
2017-06-22T07:36:09.993Z,30.01
2017-06-22T07:37:10.022Z,30.13
2017-06-22T07:38:10.044Z,30.11
2017-06-22T07:39:10.392Z,30.07
2017-06-22T07:40:10.432Z,30.1
2017-06-22T07:41:10.137Z,30.05
2017-06-22T07:42:10.478Z,30.11
2017-06-22T07:43:10.506Z,30.1
2017-06-22T07:44:10.235Z,30.1
2017-06-22T07:45:10.268Z,30.16
2017-06-22T07:46:10.293Z,30.11
2017-06-22T07:47:10.636Z,30.13
2017-06-22T07:48:10.048Z,30.1
2017-06-22T07:49:10.956Z,30.15
2017-06-22T07:50:10.424Z,30.15
2017-06-22T07:51:10.452Z,30.19
2017-06-22T07:52:10.798Z,30.2
2017-06-22T07:53:10.514Z,30.15
2017-06-22T07:54:10.791Z,30.22
2017-06-22T07:55:10.881Z,30.22
2017-06-22T07:56:10.601Z,30.2
2017-06-22T07:57:10.634Z,30.16
2017-06-22T07:58:10.663Z,30.2
2017-06-22T07:59:11.312Z,30.29
2017-06-22T08:00:10.720Z,30.2
2017-06-22T08:01:11.060Z,30.22
2017-06-22T08:02:10.800Z,30.22
2017-06-22T08:03:10.819Z,30.2
2017-06-22T08:04:11.416Z,30.15
2017-06-22T08:05:11.197Z,30.17
2017-06-22T08:06:11.233Z,30.2
2017-06-22T08:07:11.255Z,30.2
2017-06-22T08:08:11.291Z,30.31
2017-06-22T08:09:11.612Z,30.22
2017-06-22T08:10:11.349Z,30.27
2017-06-22T08:11:11.378Z,30.34
2017-06-22T08:12:11.094Z,30.24
2017-06-22T08:13:11.438Z,30.2
2017-06-22T08:14:11.781Z,30.22
2017-06-22T08:15:11.504Z,30.27
2017-06-22T08:16:11.214Z,30.24
2017-06-22T08:17:11.549Z,30.29
2017-06-22T08:18:10.973Z,30.29
2017-06-22T08:19:11.563Z,30.34
2017-06-22T08:20:11.353Z,30.24
2017-06-22T08:21:11.687Z,30.26
2017-06-22T08:22:11.726Z,30.26
2017-06-22T08:23:11.756Z,30.38
2017-06-22T08:24:12.081Z,30.37
2017-06-22T08:25:11.817Z,30.29
2017-06-22T08:26:11.218Z,30.32
2017-06-22T08:27:11.879Z,30.29
2017-06-22T08:28:11.593Z,30.32
2017-06-22T08:29:12.237Z,30.32
2017-06-22T08:30:11.965Z,30.31
2017-06-22T08:31:11.686Z,30.27
2017-06-22T08:32:11.716Z,30.34
2017-06-22T08:33:12.060Z,30.35
2017-06-22T08:34:12.341Z,30.38
2017-06-22T08:35:12.115Z,30.38
2017-06-22T08:36:12.155Z,30.34
2017-06-22T08:37:12.191Z,30.34
2017-06-22T08:38:11.596Z,30.39
2017-06-22T08:39:12.508Z,30.46
2017-06-22T08:40:11.977Z,30.42
2017-06-22T08:41:12.299Z,30.45
2017-06-22T08:42:12.030Z,30.35
2017-06-22T08:43:12.376Z,30.49
2017-06-22T08:44:12.648Z,30.45
2017-06-22T08:45:12.435Z,30.42
2017-06-22T08:46:12.474Z,30.46
2017-06-22T08:47:12.208Z,30.38
2017-06-22T08:48:12.249Z,30.39
2017-06-22T08:49:12.245Z,30.43
2017-06-22T08:50:12.278Z,30.39
2017-06-22T08:51:12.610Z,30.39
2017-06-22T08:52:12.649Z,30.47
2017-06-22T08:53:12.378Z,30.45
2017-06-22T08:54:12.100Z,30.47
2017-06-22T08:55:12.745Z,30.47
2017-06-22T08:56:12.767Z,30.35
2017-06-22T08:57:12.495Z,30.46
2017-06-22T08:58:12.525Z,30.46
2017-06-22T08:59:12.867Z,30.46
2017-06-22T09:00:12.895Z,30.43
2017-06-22T09:01:12.623Z,30.55
2017-06-22T09:02:12.965Z,30.57
2017-06-22T09:03:12.992Z,30.54
2017-06-22T09:04:13.026Z,30.47
2017-06-22T09:05:13.063Z,30.51
2017-06-22T09:06:12.467Z,30.54
2017-06-22T09:07:13.118Z,30.49
2017-06-22T09:08:13.150Z,30.51
2017-06-22T09:09:13.179Z,30.51
2017-06-22T09:10:13.216Z,30.49
2017-06-22T09:11:13.256Z,30.54
2017-06-22T09:12:12.965Z,30.58
2017-06-22T09:13:13.302Z,30.6
2017-06-22T09:14:13.336Z,30.46
2017-06-22T09:15:13.371Z,30.58
2017-06-22T09:16:13.408Z,30.49
2017-06-22T09:17:13.441Z,30.55
2017-06-22T09:18:13.474Z,30.6
2017-06-22T09:19:13.511Z,30.49
2017-06-22T09:20:13.211Z,30.54
2017-06-22T09:21:13.246Z,30.57
2017-06-22T09:22:13.290Z,30.47
2017-06-22T09:23:13.622Z,30.55
2017-06-22T09:24:13.651Z,30.58
2017-06-22T09:25:13.923Z,30.45
2017-06-22T09:26:13.714Z,30.46
2017-06-22T09:27:13.751Z,30.65
2017-06-22T09:28:13.457Z,30.54
2017-06-22T09:29:13.807Z,30.62
2017-06-22T09:30:13.780Z,30.62
2017-06-22T09:31:13.873Z,30.57
2017-06-22T09:32:13.592Z,30.6
2017-06-22T09:33:13.620Z,30.62
2017-06-22T09:34:13.989Z,30.58
2017-06-22T09:35:13.927Z,30.65
2017-06-22T09:36:14.025Z,30.67
2017-06-22T09:37:14.054Z,30.69
2017-06-22T09:38:14.091Z,30.67
2017-06-22T09:39:14.123Z,30.65
2017-06-22T09:40:14.400Z,30.67
2017-06-22T09:41:13.864Z,30.67
2017-06-22T09:42:13.593Z,30.7
2017-06-22T09:43:14.242Z,30.7
2017-06-22T09:44:13.959Z,30.65
2017-06-22T09:45:14.308Z,30.75
2017-06-22T09:46:14.030Z,30.64
2017-06-22T09:47:14.070Z,30.77
2017-06-22T09:48:14.403Z,30.7
2017-06-22T09:49:14.119Z,30.67
2017-06-22T09:50:14.460Z,30.69
2017-06-22T09:51:14.494Z,30.79
2017-06-22T09:52:14.219Z,30.72
2017-06-22T09:53:14.559Z,30.76
2017-06-22T09:54:14.579Z,30.65
2017-06-22T09:55:14.881Z,30.76
2017-06-22T09:56:14.649Z,30.72
2017-06-22T09:57:14.692Z,30.77
2017-06-22T09:58:14.710Z,30.75
2017-06-22T09:59:14.752Z,30.75
2017-06-22T10:00:15.090Z,30.7
2017-06-22T10:01:14.817Z,30.75
2017-06-22T10:02:14.846Z,30.72
2017-06-22T10:03:14.872Z,30.75
2017-06-22T10:04:14.904Z,30.86
2017-06-22T10:05:15.236Z,30.75
2017-06-22T10:06:14.653Z,30.76
2017-06-22T10:07:14.682Z,30.8
2017-06-22T10:08:15.032Z,30.72
2017-06-22T10:09:15.069Z,30.73
2017-06-22T10:10:15.400Z,30.82
2017-06-22T10:11:15.127Z,30.86
2017-06-22T10:12:15.158Z,30.84
2017-06-22T10:13:15.196Z,30.88
2017-06-22T10:14:14.903Z,30.83
2017-06-22T10:15:15.238Z,30.82
2017-06-22T10:16:15.289Z,30.86
2017-06-22T10:17:15.344Z,30.86
2017-06-22T10:18:15.028Z,30.83
2017-06-22T10:19:15.056Z,30.79
2017-06-22T10:20:15.717Z,30.89
2017-06-22T10:21:15.443Z,30.88
2017-06-22T10:22:15.475Z,30.91
2017-06-22T10:23:15.508Z,30.83
2017-06-22T10:24:15.537Z,30.84
2017-06-22T10:25:15.569Z,30.83
2017-06-22T10:26:15.286Z,30.92
2017-06-22T10:27:15.320Z,30.88
2017-06-22T10:28:15.644Z,30.94
2017-06-22T10:29:15.697Z,30.84
2017-06-22T10:30:15.726Z,30.91
2017-06-22T10:31:15.759Z,30.95
2017-06-22T10:32:15.772Z,30.89
2017-06-22T10:33:15.825Z,30.86
2017-06-22T10:34:15.918Z,30.86
2017-06-22T10:35:15.882Z,30.94
2017-06-22T10:36:15.921Z,30.94
2017-06-22T10:37:15.624Z,30.91
2017-06-22T10:38:15.978Z,30.94
2017-06-22T10:39:16.006Z,30.94
2017-06-22T10:40:16.048Z,30.89
2017-06-22T10:41:16.071Z,30.83
2017-06-22T10:42:16.100Z,30.95
2017-06-22T10:43:15.832Z,30.94
2017-06-22T10:44:16.166Z,30.91
2017-06-22T10:45:15.890Z,30.92
2017-06-22T10:46:16.230Z,30.92
2017-06-22T10:47:16.267Z,30.94
2017-06-22T10:48:16.293Z,30.91
2017-06-22T10:49:16.329Z,30.98
2017-06-22T10:50:15.731Z,31.06
2017-06-22T10:51:16.087Z,31.06
2017-06-22T10:52:16.429Z,31.01
2017-06-22T10:53:16.465Z,31.02
2017-06-22T10:54:16.177Z,31.09
2017-06-22T10:55:16.523Z,31.06
2017-06-22T10:56:15.931Z,31.06
2017-06-22T10:57:16.580Z,31.1
2017-06-22T10:58:16.293Z,31.12
2017-06-22T10:59:16.643Z,31.06
2017-06-22T11:00:16.679Z,31.1
2017-06-22T11:01:16.712Z,31.1
2017-06-22T11:02:16.743Z,31.12
2017-06-22T11:03:16.768Z,31.14
2017-06-22T11:04:16.808Z,31.07
2017-06-22T11:05:16.526Z,31.14
2017-06-22T11:06:16.803Z,31.16
2017-06-22T11:07:16.584Z,31.12
2017-06-22T11:08:16.930Z,30.99
2017-06-22T11:09:16.972Z,31.07
2017-06-22T11:10:17.014Z,31.13
2017-06-22T11:11:17.327Z,31.17
2017-06-22T11:12:17.060Z,31.2
2017-06-22T11:13:17.110Z,31.14
2017-06-22T11:14:17.122Z,31.1
2017-06-22T11:15:17.155Z,31.1
2017-06-22T11:16:16.816Z,31.25
2017-06-22T11:17:17.225Z,31.16
2017-06-22T11:18:17.245Z,31.14
2017-06-22T11:19:16.970Z,31.17
2017-06-22T11:20:16.998Z,31.25
2017-06-22T11:21:17.600Z,31.23
2017-06-22T11:22:17.069Z,31.21
2017-06-22T11:23:17.414Z,31.23
2017-06-22T11:24:17.443Z,31.23
2017-06-22T11:25:17.151Z,31.19
2017-06-22T11:26:17.743Z,31.2
2017-06-22T11:27:17.549Z,31.25
2017-06-22T11:28:17.574Z,31.2
2017-06-22T11:29:17.286Z,31.21
2017-06-22T11:30:17.323Z,31.19
2017-06-22T11:31:17.912Z,31.23
2017-06-22T11:32:17.680Z,31.2
2017-06-22T11:33:17.422Z,31.16
2017-06-22T11:34:17.455Z,31.23
2017-06-22T11:35:17.476Z,31.21
2017-06-22T11:36:17.764Z,31.34
2017-06-22T11:37:17.537Z,31.25
2017-06-22T11:38:17.890Z,31.21
2017-06-22T11:39:17.637Z,31.31
2017-06-22T11:40:17.948Z,31.26
2017-06-22T11:41:17.924Z,31.29
2017-06-22T11:42:18.017Z,31.35
2017-06-22T11:43:18.035Z,31.31
2017-06-22T11:44:18.075Z,31.34
2017-06-22T11:45:17.803Z,31.25
2017-06-22T11:46:18.444Z,31.25
2017-06-22T11:47:18.187Z,31.2
2017-06-22T11:48:18.198Z,31.25
2017-06-22T11:49:18.239Z,31.17
2017-06-22T11:50:18.268Z,31.28
2017-06-22T11:51:18.561Z,31.17
2017-06-22T11:52:18.338Z,31.16
2017-06-22T11:53:18.359Z,31.1
2017-06-22T11:54:18.403Z,31.13
2017-06-22T11:55:18.440Z,31.12
2017-06-22T11:56:18.456Z,31.14
2017-06-22T11:57:18.485Z,31.14
2017-06-22T11:58:18.217Z,31.07
2017-06-22T11:59:18.559Z,31.1
2017-06-22T12:00:18.287Z,31.06
2017-06-22T12:01:18.908Z,31.12
2017-06-22T12:02:18.653Z,31.06
2017-06-22T12:03:18.682Z,31.04
2017-06-22T12:04:18.096Z,31.04
2017-06-22T12:05:18.435Z,30.95
2017-06-22T12:06:18.469Z,30.95
2017-06-22T12:07:18.814Z,30.86
2017-06-22T12:08:18.849Z,30.95
2017-06-22T12:09:18.563Z,30.98
2017-06-22T12:10:18.276Z,30.95
2017-06-22T12:11:18.637Z,31.02
2017-06-22T12:12:18.341Z,30.99
2017-06-22T12:13:18.693Z,30.99
2017-06-22T12:14:18.711Z,30.99
2017-06-22T12:15:18.757Z,30.91
2017-06-22T12:16:19.105Z,30.92
2017-06-22T12:17:18.810Z,30.95
2017-06-22T12:18:19.163Z,30.86
2017-06-22T12:19:18.879Z,30.92
2017-06-22T12:20:19.229Z,30.92
2017-06-22T12:21:19.258Z,30.92
2017-06-22T12:22:19.282Z,30.83
2017-06-22T12:23:18.695Z,30.83
2017-06-22T12:24:19.042Z,30.88
2017-06-22T12:25:19.384Z,30.94
2017-06-22T12:26:19.397Z,30.88
2017-06-22T12:27:19.139Z,30.95
2017-06-22T12:28:19.485Z,30.8
2017-06-22T12:29:19.195Z,30.94
2017-06-22T12:30:19.542Z,30.94
2017-06-22T12:31:19.574Z,30.83
2017-06-22T12:32:19.291Z,30.72
2017-06-22T12:33:19.644Z,30.79
2017-06-22T12:34:19.672Z,30.76
2017-06-22T12:35:19.693Z,30.77
2017-06-22T12:36:19.426Z,30.73
2017-06-22T12:37:20.022Z,30.73
2017-06-22T12:38:19.791Z,30.73
2017-06-22T12:39:19.836Z,30.79
2017-06-22T12:40:19.856Z,30.57
2017-06-22T12:41:19.902Z,30.76
2017-06-22T12:42:20.172Z,30.65
2017-06-22T12:43:19.968Z,30.65
2017-06-22T12:44:19.980Z,30.69
2017-06-22T12:45:20.017Z,30.64
2017-06-22T12:46:19.730Z,30.67
2017-06-22T12:47:20.368Z,30.54
2017-06-22T12:48:20.738Z,30.64
2017-06-22T12:49:20.141Z,30.6
2017-06-22T12:50:20.165Z,30.57
2017-06-22T12:51:19.577Z,30.54
2017-06-22T12:52:20.531Z,30.55
2017-06-22T12:53:20.282Z,30.62
2017-06-22T12:54:20.296Z,30.61
2017-06-22T12:55:20.330Z,30.57
2017-06-22T12:56:20.359Z,30.58